Time;durP1;ratioP1;P1;durP2;ratioP2;P2;SDS_P1;SDS_P2;PMS_P1;PMS_P2;Temp;Humidity;BMP_temperature;BMP_pressure;BME280_temperature;BME280_humidity;BME280_pressure;Samples;Min_cycle;Max_cycle;Signal;HPM_P1;HPM_P2
2021/08/31 00:01:35;;;;;;;36.08;17.25;;;;;;;;;;5050466;28;20032;-60
2021/08/31 00:04:00;;;;;;;33.95;16.88;;;;;;;;;;5052004;28;20476;-60
2021/08/31 00:06:26;;;;;;;34.97;17.08;;;;;;;;;;5048467;28;20403;-60
2021/08/31 00:08:51;;;;;;;34.00;18.15;;;;;;;;;;5050107;28;20115;-60
2021/08/31 00:11:17;;;;;;;33.92;17.55;;;;;;;;;;5067873;28;20033;-60
2021/08/31 00:13:42;;;;;;;35.35;17.33;;;;;;;;;;5051169;28;20032;-60
2021/08/31 00:16:07;;;;;;;32.63;16.83;;;;;;;;;;5048815;28;20075;-60
2021/08/31 00:18:33;;;;;;;33.90;16.90;;;;;;;;;;5049410;28;20137;-60
2021/08/31 00:20:58;;;;;;;34.83;16.90;;;;;;;;;;5051430;28;20143;-60
2021/08/31 00:23:24;;;;;;;34.78;17.83;;;;;;;;;;5047652;28;20021;-60
2021/08/31 00:25:53;;;;;;;33.05;17.33;;;;;;;;;;5053394;28;20028;-61
2021/08/31 00:28:21;;;;;;;38.45;17.67;;;;;;;;;;5047110;28;20024;-61
2021/08/31 00:30:47;;;;;;;37.40;17.10;;;;;;;;;;5050002;28;20045;-60
2021/08/31 00:33:13;;;;;;;36.15;17.45;;;;;;;;;;5053252;28;20035;-60
2021/08/31 00:35:38;;;;;;;32.78;17.17;;;;;;;;;;5053124;28;20119;-60
2021/08/31 00:38:04;;;;;;;33.72;17.35;;;;;;;;;;5048626;28;20364;-60
2021/08/31 00:40:29;;;;;;;31.42;16.45;;;;;;;;;;5051703;28;20063;-61
2021/08/31 00:42:55;;;;;;;36.15;18.02;;;;;;;;;;5051702;28;20064;-60
2021/08/31 00:45:21;;;;;;;35.58;17.80;;;;;;;;;;5049277;28;20075;-60
2021/08/31 00:47:46;;;;;;;35.92;17.70;;;;;;;;;;5047350;28;20033;-60
2021/08/31 00:50:16;;;;;;;34.95;18.15;;;;;;;;;;5052087;28;20519;-59
2021/08/31 00:52:42;;;;;;;33.17;17.02;;;;;;;;;;5062914;28;20031;-60
2021/08/31 00:55:09;;;;;;;33.30;17.52;;;;;;;;;;5050519;28;20029;-60
2021/08/31 00:57:36;;;;;;;36.25;17.35;;;;;;;;;;5051690;28;20021;-60
2021/08/31 01:00:02;;;;;;;31.85;16.90;;;;;;;;;;5047110;28;20044;-60
2021/08/31 01:02:28;;;;;;;34.83;17.15;;;;;;;;;;5051364;28;20067;-60
2021/08/31 01:04:53;;;;;;;35.95;17.75;;;;;;;;;;5049421;28;20052;-60
2021/08/31 01:07:18;;;;;;;36.25;17.33;;;;;;;;;;5049091;28;20381;-60
2021/08/31 01:09:45;;;;;;;37.03;17.75;;;;;;;;;;5048312;28;20044;-60
2021/08/31 01:12:11;;;;;;;34.10;17.05;;;;;;;;;;5048262;28;20040;-60
2021/08/31 01:14:36;;;;;;;38.70;18.38;;;;;;;;;;5046334;28;20119;-60
2021/08/31 01:17:02;;;;;;;35.58;17.38;;;;;;;;;;5047943;28;20101;-60
2021/08/31 01:19:31;;;;;;;38.15;17.38;;;;;;;;;;5047515;28;20436;-60
2021/08/31 01:22:02;;;;;;;;;;;;;;;;;;5048138;28;20677;-60
2021/08/31 01:24:28;;;;;;;38.88;17.00;;;;;;;;;;5049258;28;19919;-60
2021/08/31 01:26:54;;;;;;;36.97;17.80;;;;;;;;;;5047999;28;20029;-60
2021/08/31 01:29:19;;;;;;;35.88;18.55;;;;;;;;;;5047269;28;20063;-59
2021/08/31 01:31:45;;;;;;;34.50;16.60;;;;;;;;;;5053511;28;20032;-60
2021/08/31 01:34:10;;;;;;;32.35;16.67;;;;;;;;;;5050321;28;20059;-60
2021/08/31 01:36:36;;;;;;;35.88;17.38;;;;;;;;;;5049002;28;20037;-60
2021/08/31 01:39:05;;;;;;;33.90;16.48;;;;;;;;;;5048211;28;20815;-60
2021/08/31 01:41:32;;;;;;;34.25;15.95;;;;;;;;;;5047179;28;20096;-60
2021/08/31 01:43:57;;;;;;;30.90;16.67;;;;;;;;;;5047253;28;20028;-60
2021/08/31 01:46:23;;;;;;;35.33;16.20;;;;;;;;;;5047479;28;20483;-60
2021/08/31 01:48:48;;;;;;;33.03;16.05;;;;;;;;;;5044334;28;20434;-60
2021/08/31 01:51:13;;;;;;;33.03;16.67;;;;;;;;;;5046778;28;20041;-60
2021/08/31 01:53:39;;;;;;;33.03;16.58;;;;;;;;;;5048663;28;20024;-60
2021/08/31 01:56:05;;;;;;;32.28;16.33;;;;;;;;;;5048056;28;20025;-60
2021/08/31 01:58:31;;;;;;;32.00;16.00;;;;;;;;;;5046591;28;20345;-60
2021/08/31 02:00:56;;;;;;;34.63;16.63;;;;;;;;;;5048238;28;20048;-60
2021/08/31 02:03:22;;;;;;;35.28;16.92;;;;;;;;;;5047640;28;20021;-60
2021/08/31 02:05:47;;;;;;;34.78;16.35;;;;;;;;;;5049058;28;20441;-60
2021/08/31 02:08:13;;;;;;;29.77;15.25;;;;;;;;;;5047903;28;20036;-60
2021/08/31 02:10:38;;;;;;;33.75;15.73;;;;;;;;;;5048015;28;20036;-60
2021/08/31 02:13:04;;;;;;;36.17;17.33;;;;;;;;;;5048594;28;20541;-60
2021/08/31 02:15:29;;;;;;;31.50;16.08;;;;;;;;;;5049663;28;20025;-60
2021/08/31 02:17:55;;;;;;;32.85;16.17;;;;;;;;;;5046021;28;20530;-60
2021/08/31 02:20:20;;;;;;;37.38;16.95;;;;;;;;;;5046794;28;20051;-61
2021/08/31 02:22:46;;;;;;;31.60;15.25;;;;;;;;;;5046367;28;20051;-59
2021/08/31 02:25:11;;;;;;;30.77;15.55;;;;;;;;;;5049225;28;20028;-60
2021/08/31 02:27:37;;;;;;;27.85;15.27;;;;;;;;;;5047140;28;20040;-59
2021/08/31 02:30:05;;;;;;;32.58;16.25;;;;;;;;;;5046090;28;20100;-59
2021/08/31 02:32:30;;;;;;;30.20;14.70;;;;;;;;;;5061306;28;20040;-59
2021/08/31 02:34:56;;;;;;;30.85;16.10;;;;;;;;;;5048349;28;20032;-59
2021/08/31 02:37:21;;;;;;;29.45;14.77;;;;;;;;;;5048770;28;20395;-60
2021/08/31 02:39:47;;;;;;;28.35;15.00;;;;;;;;;;5046165;28;20036;-59
2021/08/31 02:42:13;;;;;;;33.95;15.68;;;;;;;;;;5046908;28;20040;-59
2021/08/31 02:44:38;;;;;;;29.40;15.20;;;;;;;;;;5046401;28;20021;-59
2021/08/31 02:47:04;;;;;;;31.48;15.00;;;;;;;;;;5048926;28;20036;-59
2021/08/31 02:49:29;;;;;;;33.13;15.55;;;;;;;;;;5048800;28;20047;-59
2021/08/31 02:51:56;;;;;;;30.33;15.45;;;;;;;;;;5050298;28;20086;-59
2021/08/31 02:54:21;;;;;;;33.30;16.50;;;;;;;;;;5053228;28;20449;-60
2021/08/31 02:56:46;;;;;;;33.25;15.20;;;;;;;;;;5050843;28;20048;-60
2021/08/31 02:59:13;;;;;;;33.88;16.38;;;;;;;;;;5059721;28;20050;-59
2021/08/31 03:02:04;;;;;;;36.35;16.88;;;;;;;;;;5056635;28;20044;-60
2021/08/31 03:04:24;;;;;;;39.47;16.35;;;;;;;;;;5052825;28;20032;-60
2021/08/31 03:06:50;;;;;;;34.15;16.55;;;;;;;;;;5050215;28;20029;-61
2021/08/31 03:09:15;;;;;;;34.10;17.60;;;;;;;;;;5064821;28;20067;-60
2021/08/31 03:11:41;;;;;;;39.25;17.58;;;;;;;;;;5065586;28;20126;-59
2021/08/31 03:14:06;;;;;;;32.20;15.75;;;;;;;;;;5053269;28;20036;-59
2021/08/31 03:16:31;;;;;;;32.03;15.73;;;;;;;;;;5053000;28;20043;-60
2021/08/31 03:18:57;;;;;;;32.75;16.50;;;;;;;;;;5050477;28;20506;-60
2021/08/31 03:21:22;;;;;;;34.60;17.10;;;;;;;;;;5051236;28;20036;-60
2021/08/31 03:23:48;;;;;;;36.10;17.85;;;;;;;;;;5048708;28;20041;-60
2021/08/31 03:26:13;;;;;;;31.05;16.13;;;;;;;;;;5050682;28;20017;-59
2021/08/31 03:28:38;;;;;;;35.53;17.38;;;;;;;;;;5052360;28;20035;-60
2021/08/31 03:31:04;;;;;;;34.17;17.35;;;;;;;;;;5050581;28;20051;-59
2021/08/31 03:33:29;;;;;;;36.25;18.00;;;;;;;;;;5048842;28;20021;-59
2021/08/31 03:35:55;;;;;;;33.53;17.58;;;;;;;;;;5053426;28;20147;-59
2021/08/31 03:38:20;;;;;;;38.35;18.23;;;;;;;;;;5051190;28;20478;-59
2021/08/31 03:40:45;;;;;;;36.22;16.33;;;;;;;;;;5049911;28;20231;-61
2021/08/31 03:43:11;;;;;;;35.83;17.52;;;;;;;;;;5048725;28;20039;-60
2021/08/31 03:45:37;;;;;;;35.15;17.48;;;;;;;;;;5049523;28;20041;-60
2021/08/31 03:48:02;;;;;;;36.47;17.25;;;;;;;;;;5046605;28;20132;-60
2021/08/31 03:50:28;;;;;;;35.38;17.30;;;;;;;;;;5049592;28;20431;-60
2021/08/31 03:52:53;;;;;;;38.03;18.00;;;;;;;;;;5051164;28;20032;-60
2021/08/31 03:55:18;;;;;;;43.83;19.02;;;;;;;;;;5049603;28;20048;-59
2021/08/31 03:57:44;;;;;;;36.03;18.48;;;;;;;;;;5048153;28;20602;-60
2021/08/31 04:00:10;;;;;;;37.35;18.25;;;;;;;;;;5055700;28;20048;-60
2021/08/31 04:02:37;;;;;;;36.25;17.80;;;;;;;;;;5062302;28;20494;-60
2021/08/31 04:05:02;;;;;;;40.85;19.00;;;;;;;;;;5065018;28;20032;-60
2021/08/31 04:07:28;;;;;;;37.20;17.85;;;;;;;;;;5051268;28;20021;-60
2021/08/31 04:09:55;;;;;;;40.65;19.10;;;;;;;;;;5050548;28;20024;-59
2021/08/31 04:12:21;;;;;;;35.92;18.42;;;;;;;;;;5048702;28;20037;-60
2021/08/31 04:14:46;;;;;;;43.67;19.60;;;;;;;;;;5050787;28;20025;-60
2021/08/31 04:17:12;;;;;;;39.72;18.10;;;;;;;;;;5052197;28;20021;-60
2021/08/31 04:19:38;;;;;;;39.15;18.08;;;;;;;;;;5048006;28;20025;-60
2021/08/31 04:22:03;;;;;;;36.25;17.85;;;;;;;;;;5049525;28;20032;-60
2021/08/31 04:24:29;;;;;;;45.35;18.70;;;;;;;;;;5048536;28;20032;-60
2021/08/31 04:26:54;;;;;;;36.28;18.00;;;;;;;;;;5047322;28;20399;-59
2021/08/31 04:29:20;;;;;;;37.20;17.65;;;;;;;;;;5044149;28;20033;-59
2021/08/31 04:31:45;;;;;;;37.97;18.48;;;;;;;;;;5047146;28;20024;-59
2021/08/31 04:34:10;;;;;;;40.92;17.92;;;;;;;;;;5050232;28;20039;-59
2021/08/31 04:36:36;;;;;;;39.25;19.30;;;;;;;;;;5048207;28;20403;-60
2021/08/31 04:39:02;;;;;;;39.20;18.67;;;;;;;;;;5047041;28;20492;-59
2021/08/31 04:41:27;;;;;;;35.30;18.33;;;;;;;;;;5049401;28;20037;-60
2021/08/31 04:43:52;;;;;;;38.05;19.23;;;;;;;;;;5048785;28;20048;-59
2021/08/31 04:46:18;;;;;;;40.67;18.92;;;;;;;;;;5049393;28;20464;-59
2021/08/31 04:48:43;;;;;;;39.72;20.17;;;;;;;;;;5048498;28;20024;-59
2021/08/31 04:51:08;;;;;;;42.63;19.88;;;;;;;;;;5052428;28;20021;-60
2021/08/31 04:53:34;;;;;;;44.83;19.60;;;;;;;;;;5049488;28;20515;-60
2021/08/31 04:55:59;;;;;;;41.45;19.92;;;;;;;;;;5049382;28;20064;-60
2021/08/31 04:58:25;;;;;;;39.33;19.40;;;;;;;;;;5050312;28;20032;-60
2021/08/31 05:00:50;;;;;;;42.65;19.63;;;;;;;;;;5048770;28;20116;-59
2021/08/31 05:03:16;;;;;;;40.40;18.98;;;;;;;;;;5048393;28;20025;-59
2021/08/31 05:05:42;;;;;;;41.63;20.08;;;;;;;;;;5048465;28;20032;-59
2021/08/31 05:08:08;;;;;;;41.25;19.92;;;;;;;;;;5048467;28;20140;-60
2021/08/31 05:10:33;;;;;;;42.60;20.17;;;;;;;;;;5052340;28;20514;-59
2021/08/31 05:12:59;;;;;;;47.70;20.40;;;;;;;;;;5047893;28;20025;-59
2021/08/31 05:15:24;;;;;;;43.80;20.08;;;;;;;;;;5048654;28;20431;-59
2021/08/31 05:17:50;;;;;;;41.42;19.50;;;;;;;;;;5048326;28;20169;-59
2021/08/31 05:20:17;;;;;;;44.67;21.17;;;;;;;;;;5054529;28;20031;-58
2021/08/31 05:22:42;;;;;;;44.17;20.58;;;;;;;;;;5048394;28;20029;-58
2021/08/31 05:25:08;;;;;;;42.95;20.17;;;;;;;;;;5047601;28;20029;-59
2021/08/31 05:27:33;;;;;;;39.55;20.13;;;;;;;;;;5050097;28;20028;-59
2021/08/31 05:29:58;;;;;;;40.55;19.92;;;;;;;;;;5047604;28;20598;-59
2021/08/31 05:32:24;;;;;;;41.83;20.30;;;;;;;;;;5052556;28;20051;-59
2021/08/31 05:34:50;;;;;;;46.03;19.40;;;;;;;;;;5047080;28;20036;-59
2021/08/31 05:37:16;;;;;;;42.03;18.73;;;;;;;;;;5049203;28;20071;-59
2021/08/31 05:39:42;;;;;;;40.28;19.70;;;;;;;;;;5050387;28;20060;-59
2021/08/31 05:42:09;;;;;;;45.70;20.40;;;;;;;;;;5047350;28;20568;-59
2021/08/31 05:44:37;;;;;;;43.55;21.02;;;;;;;;;;5047071;28;20031;-59
2021/08/31 05:47:03;;;;;;;42.22;20.60;;;;;;;;;;5047054;28;20025;-59
2021/08/31 05:49:30;;;;;;;44.97;21.27;;;;;;;;;;5048165;28;20082;-59
2021/08/31 05:51:56;;;;;;;42.92;21.17;;;;;;;;;;5047906;28;20051;-59
2021/08/31 05:54:22;;;;;;;52.53;22.48;;;;;;;;;;5047657;28;20033;-59
2021/08/31 05:56:48;;;;;;;43.22;20.00;;;;;;;;;;5051024;28;20383;-58
2021/08/31 05:59:14;;;;;;;46.03;22.40;;;;;;;;;;5048082;28;20025;-58
2021/08/31 06:01:40;;;;;;;46.42;21.48;;;;;;;;;;5048503;28;20398;-59
2021/08/31 06:04:06;;;;;;;45.40;20.75;;;;;;;;;;5046167;28;20109;-59
2021/08/31 06:06:31;;;;;;;47.30;21.50;;;;;;;;;;5044782;28;20114;-59
2021/08/31 06:08:57;;;;;;;48.97;21.85;;;;;;;;;;5047956;28;20480;-59
2021/08/31 06:11:22;;;;;;;42.70;20.00;;;;;;;;;;5047709;28;20534;-59
2021/08/31 06:13:48;;;;;;;42.45;20.98;;;;;;;;;;5043994;28;20028;-59
2021/08/31 06:16:13;;;;;;;41.58;20.70;;;;;;;;;;5047930;28;20516;-59
2021/08/31 06:18:39;;;;;;;41.75;19.67;;;;;;;;;;5045101;28;20131;-59
2021/08/31 06:21:05;;;;;;;44.78;20.55;;;;;;;;;;5050756;28;20028;-59
2021/08/31 06:23:30;;;;;;;49.70;22.55;;;;;;;;;;5046901;28;20032;-59
2021/08/31 06:25:56;;;;;;;50.70;21.65;;;;;;;;;;5046406;28;20020;-59
2021/08/31 06:28:21;;;;;;;43.58;20.70;;;;;;;;;;5047578;28;20446;-60
2021/08/31 06:30:46;;;;;;;43.50;20.25;;;;;;;;;;5049499;28;20033;-58
2021/08/31 06:33:12;;;;;;;44.03;20.38;;;;;;;;;;5049631;28;20025;-59
2021/08/31 06:35:37;;;;;;;50.35;21.73;;;;;;;;;;5046726;28;20395;-59
2021/08/31 06:38:03;;;;;;;44.35;21.50;;;;;;;;;;5049763;28;20032;-59
2021/08/31 06:40:28;;;;;;;45.10;20.85;;;;;;;;;;5045797;28;20049;-59
2021/08/31 06:42:53;;;;;;;40.90;19.75;;;;;;;;;;5043767;28;20039;-58
2021/08/31 06:45:19;;;;;;;42.97;21.17;;;;;;;;;;5047297;28;20483;-58
2021/08/31 06:47:45;;;;;;;44.30;21.63;;;;;;;;;;5045642;28;20047;-59
2021/08/31 06:50:15;;;;;;;48.40;20.70;;;;;;;;;;5047903;28;20037;-58
2021/08/31 06:52:41;;;;;;;42.75;19.45;;;;;;;;;;5046328;28;20152;-59
2021/08/31 06:55:08;;;;;;;43.80;20.80;;;;;;;;;;5046742;28;20025;-59
2021/08/31 06:57:33;;;;;;;45.55;20.02;;;;;;;;;;5050750;28;20035;-59
2021/08/31 06:59:59;;;;;;;36.65;19.05;;;;;;;;;;5047134;28;20029;-58
2021/08/31 07:02:24;;;;;;;37.67;19.48;;;;;;;;;;5046190;28;20033;-58
2021/08/31 07:04:50;;;;;;;39.03;20.48;;;;;;;;;;5046518;28;20032;-58
2021/08/31 07:07:15;;;;;;;39.55;20.58;;;;;;;;;;5063950;28;20032;-58
2021/08/31 07:09:40;;;;;;;36.90;19.60;;;;;;;;;;5048577;28;20431;-60
2021/08/31 07:12:06;;;;;;;38.22;19.52;;;;;;;;;;5048520;28;20443;-59
2021/08/31 07:14:32;;;;;;;41.55;20.08;;;;;;;;;;5049359;28;20020;-59
2021/08/31 07:16:57;;;;;;;36.60;18.73;;;;;;;;;;5045523;28;20032;-59
2021/08/31 07:19:22;;;;;;;37.28;18.70;;;;;;;;;;5045598;28;20488;-59
2021/08/31 07:21:48;;;;;;;39.95;18.77;;;;;;;;;;5046293;28;20083;-59
2021/08/31 07:24:13;;;;;;;34.30;18.80;;;;;;;;;;5047726;28;20021;-59
2021/08/31 07:26:39;;;;;;;38.63;19.13;;;;;;;;;;5046200;28;20036;-60
2021/08/31 07:29:04;;;;;;;38.33;18.73;;;;;;;;;;5046100;28;20017;-59
2021/08/31 07:31:29;;;;;;;34.58;18.15;;;;;;;;;;5047687;28;20037;-59
2021/08/31 07:33:55;;;;;;;34.38;18.23;;;;;;;;;;5044760;28;20036;-59
2021/08/31 07:36:21;;;;;;;33.60;17.65;;;;;;;;;;5045074;28;20493;-60
2021/08/31 07:38:47;;;;;;;36.75;17.95;;;;;;;;;;5047176;28;20033;-60
2021/08/31 07:41:13;;;;;;;34.00;18.35;;;;;;;;;;5051090;28;20025;-59
2021/08/31 07:43:38;;;;;;;36.42;18.30;;;;;;;;;;5054120;28;20082;-59
2021/08/31 07:46:04;;;;;;;34.97;17.92;;;;;;;;;;5048941;28;20219;-59
2021/08/31 07:48:29;;;;;;;33.75;17.48;;;;;;;;;;5048124;28;20440;-59
2021/08/31 07:50:55;;;;;;;35.30;18.30;;;;;;;;;;5065521;28;20097;-59
2021/08/31 07:53:20;;;;;;;30.52;16.90;;;;;;;;;;5050976;28;20439;-59
2021/08/31 07:55:45;;;;;;;32.45;16.42;;;;;;;;;;5052389;28;20117;-60
2021/08/31 07:58:11;;;;;;;32.35;18.23;;;;;;;;;;5051361;28;20059;-59
2021/08/31 08:00:39;;;;;;;34.58;18.80;;;;;;;;;;5050073;28;20474;-59
2021/08/31 08:03:05;;;;;;;32.03;16.92;;;;;;;;;;5050737;28;20535;-59
2021/08/31 08:05:30;;;;;;;29.83;16.85;;;;;;;;;;5051631;28;20158;-59
2021/08/31 08:07:56;;;;;;;29.75;16.27;;;;;;;;;;5049753;28;20025;-59
2021/08/31 08:10:21;;;;;;;29.95;16.05;;;;;;;;;;5049724;28;20111;-58
2021/08/31 08:12:46;;;;;;;32.33;16.60;;;;;;;;;;5048701;28;20477;-59
2021/08/31 08:15:12;;;;;;;28.55;16.38;;;;;;;;;;5054291;28;20078;-59
2021/08/31 08:17:38;;;;;;;27.20;15.77;;;;;;;;;;5051386;28;20126;-59
2021/08/31 08:20:04;;;;;;;26.90;15.43;;;;;;;;;;5049498;28;20032;-59
2021/08/31 08:22:30;;;;;;;24.55;15.32;;;;;;;;;;5047784;28;20031;-59
2021/08/31 08:24:56;;;;;;;27.48;14.65;;;;;;;;;;5048689;28;20386;-59
2021/08/31 08:27:21;;;;;;;24.63;14.05;;;;;;;;;;5050114;28;20098;-59
2021/08/31 08:29:47;;;;;;;25.10;13.55;;;;;;;;;;5050682;28;20158;-59
2021/08/31 08:32:13;;;;;;;24.98;13.70;;;;;;;;;;5048047;28;20404;-59
2021/08/31 08:34:38;;;;;;;22.15;13.30;;;;;;;;;;5051864;28;20514;-60
2021/08/31 08:37:05;;;;;;;21.48;13.25;;;;;;;;;;5050866;28;20036;-59
2021/08/31 08:39:31;;;;;;;23.45;13.57;;;;;;;;;;5048435;28;20021;-60
2021/08/31 08:41:57;;;;;;;21.67;12.88;;;;;;;;;;5048234;28;20452;-60
2021/08/31 08:44:26;;;;;;;20.98;12.80;;;;;;;;;;5046697;28;20127;-60
2021/08/31 08:46:52;;;;;;;;;;;;;;;;;;5049052;28;20029;-60
2021/08/31 08:49:17;;;;;;;20.27;11.77;;;;;;;;;;5048934;28;20413;-60
2021/08/31 08:51:43;;;;;;;21.67;12.27;;;;;;;;;;5043866;28;20120;-60
2021/08/31 08:54:09;;;;;;;18.35;10.43;;;;;;;;;;5051134;28;20028;-60
2021/08/31 08:56:35;;;;;;;18.30;11.68;;;;;;;;;;5049594;28;20625;-59
2021/08/31 08:59:00;;;;;;;17.83;10.02;;;;;;;;;;5048167;28;20029;-58
2021/08/31 09:01:43;;;;;;;16.48;10.18;;;;;;;;;;5051154;28;20107;-59
2021/08/31 09:04:10;;;;;;;16.13;10.45;;;;;;;;;;5048713;28;20024;-59
2021/08/31 09:06:36;;;;;;;15.68;10.00;;;;;;;;;;5046778;28;20033;-59
2021/08/31 09:09:05;;;;;;;18.65;10.73;;;;;;;;;;5047920;28;20029;-59
2021/08/31 09:11:38;;;;;;;19.13;10.45;;;;;;;;;;5047473;28;20557;-60
2021/08/31 09:14:23;;;;;;;18.70;10.65;;;;;;;;;;5053049;28;20504;-60
2021/08/31 09:16:54;;;;;;;17.60;10.73;;;;;;;;;;5048121;28;20495;-60
2021/08/31 09:19:34;;;;;;;14.60;9.48;;;;;;;;;;5051418;28;20052;-60
2021/08/31 09:22:18;;;;;;;14.82;9.93;;;;;;;;;;5050596;28;20033;-59
2021/08/31 09:24:59;;;;;;;15.73;9.50;;;;;;;;;;5047956;28;20041;-59
2021/08/31 09:27:41;;;;;;;15.05;9.18;;;;;;;;;;5049546;28;20035;-60
2021/08/31 09:30:18;;;;;;;14.25;8.55;;;;;;;;;;5046365;28;20021;-59
2021/08/31 09:33:08;;;;;;;18.00;10.13;;;;;;;;;;5048204;28;20483;-59
2021/08/31 09:35:35;;;;;;;16.17;10.63;;;;;;;;;;5048053;28;20059;-59
2021/08/31 09:38:05;;;;;;;18.52;11.20;;;;;;;;;;5046674;28;20037;-59
2021/08/31 09:40:37;;;;;;;23.75;12.70;;;;;;;;;;5046737;28;20032;-59
2021/08/31 09:43:05;;;;;;;20.75;12.20;;;;;;;;;;5047584;28;20546;-60
2021/08/31 09:45:34;;;;;;;19.80;11.88;;;;;;;;;;5046906;28;20533;-60
2021/08/31 09:48:01;;;;;;;22.17;12.60;;;;;;;;;;5059800;28;20482;-60
2021/08/31 09:50:29;;;;;;;21.95;13.10;;;;;;;;;;5045668;28;20082;-60
2021/08/31 09:53:17;;;;;;;22.33;12.30;;;;;;;;;;5048730;28;20025;-60
2021/08/31 09:55:45;;;;;;;18.90;12.15;;;;;;;;;;5047996;28;20166;-60
2021/08/31 09:58:21;;;;;;;19.80;11.27;;;;;;;;;;5047671;28;20877;-59
2021/08/31 10:00:47;;;;;;;19.90;11.13;;;;;;;;;;5047418;28;20068;-59
2021/08/31 10:03:14;;;;;;;20.48;11.38;;;;;;;;;;5048927;28;20153;-59
2021/08/31 10:05:40;;;;;;;19.05;10.30;;;;;;;;;;5046643;28;20029;-59
2021/08/31 10:08:06;;;;;;;19.35;11.00;;;;;;;;;;5046260;28;20561;-59
2021/08/31 10:10:35;;;;;;;15.27;10.35;;;;;;;;;;5048652;28;20036;-59
2021/08/31 10:13:13;;;;;;;15.88;10.68;;;;;;;;;;5065187;28;20029;-59
2021/08/31 10:15:41;;;;;;;18.30;10.80;;;;;;;;;;5046873;28;20033;-59
2021/08/31 10:18:08;;;;;;;16.13;10.05;;;;;;;;;;5045358;28;20147;-59
2021/08/31 10:20:37;;;;;;;16.35;10.88;;;;;;;;;;5047092;28;20055;-60
2021/08/31 10:23:03;;;;;;;15.13;10.25;;;;;;;;;;5050595;28;20116;-60
2021/08/31 10:25:28;;;;;;;19.83;10.20;;;;;;;;;;5048096;28;20040;-60
2021/08/31 10:27:55;;;;;;;16.60;10.80;;;;;;;;;;5046083;28;20025;-60
2021/08/31 10:30:21;;;;;;;18.90;11.05;;;;;;;;;;5048073;28;20017;-60
2021/08/31 10:32:59;;;;;;;18.77;10.90;;;;;;;;;;5046411;28;20035;-60
2021/08/31 10:35:39;;;;;;;19.38;10.70;;;;;;;;;;5059399;28;20060;-60
2021/08/31 10:38:07;;;;;;;17.33;10.45;;;;;;;;;;5046259;28;20113;-60
2021/08/31 10:40:35;;;;;;;25.75;11.10;;;;;;;;;;5048122;28;20048;-60
2021/08/31 10:43:11;;;;;;;16.75;11.02;;;;;;;;;;5051842;28;20017;-60
2021/08/31 10:45:51;;;;;;;17.42;11.05;;;;;;;;;;5055359;28;20033;-59
2021/08/31 10:48:23;;;;;;;21.95;10.88;;;;;;;;;;5047083;28;20029;-59
2021/08/31 10:50:59;;;;;;;17.67;9.93;;;;;;;;;;5046759;28;20107;-59
2021/08/31 10:53:43;;;;;;;16.70;10.15;;;;;;;;;;5049929;28;20017;-60
2021/08/31 10:56:29;;;;;;;14.95;9.40;;;;;;;;;;5063204;28;20399;-60
2021/08/31 10:58:56;;;;;;;17.40;9.77;;;;;;;;;;5045352;28;20060;-60
2021/08/31 11:01:24;;;;;;;16.10;9.98;;;;;;;;;;5046559;28;20040;-60
2021/08/31 11:03:52;;;;;;;16.27;9.32;;;;;;;;;;5045659;28;20021;-59
2021/08/31 11:06:32;;;;;;;14.73;9.73;;;;;;;;;;5047238;28;20017;-59
2021/08/31 11:09:16;;;;;;;14.82;8.93;;;;;;;;;;5043286;28;20487;-61
2021/08/31 11:11:44;;;;;;;16.20;9.93;;;;;;;;;;5046908;28;20083;-59
2021/08/31 11:14:10;;;;;;;14.32;9.40;;;;;;;;;;5051133;28;20055;-60
2021/08/31 11:16:37;;;;;;;15.68;9.25;;;;;;;;;;5051184;28;20495;-59
2021/08/31 11:19:04;;;;;;;12.63;8.57;;;;;;;;;;5051147;28;20024;-59
2021/08/31 11:21:30;;;;;;;13.68;8.27;;;;;;;;;;5052497;28;20044;-59
2021/08/31 11:24:07;;;;;;;13.95;8.65;;;;;;;;;;5050307;28;20029;-59
2021/08/31 11:26:32;;;;;;;12.75;8.60;;;;;;;;;;5053655;28;20119;-59
2021/08/31 11:29:07;;;;;;;15.23;8.95;;;;;;;;;;5065014;28;20455;-58
2021/08/31 11:31:32;;;;;;;15.20;9.40;;;;;;;;;;5050569;28;20025;-59
2021/08/31 11:33:58;;;;;;;15.88;9.80;;;;;;;;;;5051738;28;20205;-59
2021/08/31 11:36:28;;;;;;;15.77;9.63;;;;;;;;;;5055537;28;20070;-60
2021/08/31 11:38:56;;;;;;;18.67;9.85;;;;;;;;;;5064101;28;20415;-59
2021/08/31 11:41:23;;;;;;;18.50;10.80;;;;;;;;;;5048159;28;20255;-60
2021/08/31 11:43:51;;;;;;;19.02;9.75;;;;;;;;;;5050935;28;20017;-60
2021/08/31 11:46:28;;;;;;;19.40;9.52;;;;;;;;;;5065360;28;20502;-60
2021/08/31 11:49:12;;;;;;;16.95;9.10;;;;;;;;;;5065495;28;20029;-60
2021/08/31 11:51:39;;;;;;;13.25;8.95;;;;;;;;;;5052692;28;20520;-60
2021/08/31 11:54:13;;;;;;;16.08;9.82;;;;;;;;;;5050372;28;20462;-60
2021/08/31 11:56:40;;;;;;;13.60;9.18;;;;;;;;;;5048192;28;20132;-59
2021/08/31 11:59:06;;;;;;;13.27;8.93;;;;;;;;;;5047333;28;20044;-59
2021/08/31 12:01:35;;;;;;;18.52;9.35;;;;;;;;;;5048649;28;20051;-59
2021/08/31 12:04:19;;;;;;;17.95;8.77;;;;;;;;;;5048057;28;20508;-59
2021/08/31 12:06:47;;;;;;;15.25;9.13;;;;;;;;;;5048457;28;20496;-60
2021/08/31 12:09:15;;;;;;;15.05;8.73;;;;;;;;;;5050017;28;20465;-60
2021/08/31 12:11:41;;;;;;;19.77;8.80;;;;;;;;;;5049058;28;20488;-59
2021/08/31 12:14:06;;;;;;;13.27;8.38;;;;;;;;;;5051732;28;20293;-59
2021/08/31 12:16:32;;;;;;;14.95;8.55;;;;;;;;;;5052745;28;20582;-59
2021/08/31 12:19:13;;;;;;;13.48;8.32;;;;;;;;;;5047759;28;20063;-59
2021/08/31 12:21:39;;;;;;;12.70;8.27;;;;;;;;;;5053164;28;20037;-59
2021/08/31 12:24:11;;;;;;;13.23;7.82;;;;;;;;;;5047381;28;20025;-59
2021/08/31 12:26:37;;;;;;;15.52;7.78;;;;;;;;;;5050606;28;20079;-59
2021/08/31 12:29:08;;;;;;;12.82;7.93;;;;;;;;;;5050673;28;20439;-59
2021/08/31 12:31:35;;;;;;;14.15;8.13;;;;;;;;;;5048819;28;20024;-59
2021/08/31 12:34:01;;;;;;;14.13;8.13;;;;;;;;;;5049754;28;20075;-59
2021/08/31 12:36:34;;;;;;;14.43;9.07;;;;;;;;;;5050590;28;20065;-59
2021/08/31 12:39:06;;;;;;;13.60;7.93;;;;;;;;;;5047163;28;20259;-59
2021/08/31 12:41:43;;;;;;;10.75;6.93;;;;;;;;;;5048410;28;20028;-59
2021/08/31 12:44:17;;;;;;;11.35;7.32;;;;;;;;;;5065211;28;20348;-58
2021/08/31 12:46:43;;;;;;;10.15;6.82;;;;;;;;;;5049839;28;20020;-58
2021/08/31 12:49:13;;;;;;;13.43;6.88;;;;;;;;;;5048306;28;20075;-59
2021/08/31 12:51:39;;;;;;;10.63;6.25;;;;;;;;;;5048664;28;20029;-59
2021/08/31 12:54:05;;;;;;;10.02;6.85;;;;;;;;;;5049971;28;20104;-59
2021/08/31 12:56:31;;;;;;;9.27;6.50;;;;;;;;;;5049142;28;20040;-59
2021/08/31 12:59:03;;;;;;;10.07;6.82;;;;;;;;;;5046749;28;20617;-60
2021/08/31 13:01:28;;;;;;;10.07;6.57;;;;;;;;;;5047624;28;20033;-60
2021/08/31 13:03:55;;;;;;;11.02;6.97;;;;;;;;;;5063400;28;20063;-60
2021/08/31 13:06:35;;;;;;;7.88;5.95;;;;;;;;;;5051476;28;20040;-59
2021/08/31 13:09:03;;;;;;;8.52;6.68;;;;;;;;;;5062478;28;20035;-59
2021/08/31 13:11:28;;;;;;;11.77;6.82;;;;;;;;;;5048898;28;20024;-60
2021/08/31 13:13:54;;;;;;;10.15;7.10;;;;;;;;;;5048989;28;20086;-59
2021/08/31 13:16:20;;;;;;;9.77;6.75;;;;;;;;;;5050892;28;20033;-60
2021/08/31 13:18:46;;;;;;;10.20;7.07;;;;;;;;;;5048208;28;20441;-59
2021/08/31 13:21:11;;;;;;;10.63;6.78;;;;;;;;;;5048508;28;20170;-58
2021/08/31 13:23:36;;;;;;;10.30;6.65;;;;;;;;;;5047089;28;20037;-59
2021/08/31 13:26:02;;;;;;;9.55;7.03;;;;;;;;;;5049823;28;20111;-59
2021/08/31 13:28:27;;;;;;;9.18;6.18;;;;;;;;;;5046755;28;20140;-60
2021/08/31 13:30:53;;;;;;;9.65;6.40;;;;;;;;;;5046101;28;20049;-60
2021/08/31 13:33:19;;;;;;;9.15;5.80;;;;;;;;;;5046504;28;20035;-59
2021/08/31 13:35:46;;;;;;;11.63;6.70;;;;;;;;;;5048247;28;20369;-60
2021/08/31 13:38:11;;;;;;;8.38;6.53;;;;;;;;;;5047536;28;20111;-60
2021/08/31 13:40:37;;;;;;;8.93;6.45;;;;;;;;;;5046126;28;20099;-60
2021/08/31 13:43:02;;;;;;;12.90;6.57;;;;;;;;;;5048989;28;20037;-59
2021/08/31 13:45:28;;;;;;;8.18;6.60;;;;;;;;;;5051920;28;20060;-60
2021/08/31 13:47:53;;;;;;;11.55;6.63;;;;;;;;;;5047585;28;20021;-60
2021/08/31 13:50:19;;;;;;;8.38;6.18;;;;;;;;;;5051434;28;20119;-59
2021/08/31 13:52:44;;;;;;;9.48;6.68;;;;;;;;;;5049132;28;20021;-59
2021/08/31 13:55:10;;;;;;;9.80;6.40;;;;;;;;;;5046043;28;20048;-59
2021/08/31 13:57:35;;;;;;;7.20;5.72;;;;;;;;;;5049764;28;20487;-60
2021/08/31 14:00:01;;;;;;;7.57;6.10;;;;;;;;;;5045008;28;20029;-60
2021/08/31 14:02:26;;;;;;;7.90;6.03;;;;;;;;;;5047570;28;20503;-60
2021/08/31 14:04:52;;;;;;;10.60;6.68;;;;;;;;;;5050041;28;20025;-60
2021/08/31 14:07:17;;;;;;;11.40;6.30;;;;;;;;;;5048805;28;20038;-60
2021/08/31 14:09:44;;;;;;;11.07;6.05;;;;;;;;;;5046074;28;20037;-58
2021/08/31 14:12:10;;;;;;;9.90;6.00;;;;;;;;;;5047484;28;20029;-59
2021/08/31 14:14:35;;;;;;;8.43;5.97;;;;;;;;;;5047351;28;20079;-59
2021/08/31 14:17:02;;;;;;;8.38;6.22;;;;;;;;;;5047883;28;20021;-60
2021/08/31 14:19:28;;;;;;;8.38;5.80;;;;;;;;;;5048978;28;20052;-60
2021/08/31 14:21:55;;;;;;;8.57;5.70;;;;;;;;;;5046782;28;20035;-60